createdAt,value
2022-10-17T00:00:47.355Z,14.80
2022-10-17T00:03:15.680Z,14.80
2022-10-17T00:05:47.914Z,14.80
2022-10-17T00:08:17.328Z,14.80
2022-10-17T00:10:44.596Z,14.80
2022-10-17T00:13:13.260Z,14.80
2022-10-17T00:15:44.942Z,14.80
2022-10-17T00:18:12.352Z,14.80
2022-10-17T00:20:39.557Z,14.80
2022-10-17T00:23:06.950Z,14.80
2022-10-17T00:25:34.078Z,14.80
2022-10-17T00:28:01.352Z,14.80
2022-10-17T00:30:28.611Z,14.80
2022-10-17T00:32:56.166Z,14.70
2022-10-17T00:35:23.364Z,14.70
2022-10-17T00:37:50.615Z,14.70
2022-10-17T00:40:18.118Z,14.70
2022-10-17T00:42:47.956Z,14.60
2022-10-17T00:45:27.668Z,14.60
2022-10-17T00:48:08.618Z,14.60
2022-10-17T00:50:37.670Z,14.60
2022-10-17T00:53:08.576Z,14.60
2022-10-17T00:55:42.338Z,14.60
2022-10-17T00:58:09.393Z,14.60
2022-10-17T01:00:36.986Z,14.60
2022-10-17T01:03:05.077Z,14.60
2022-10-17T01:05:33.059Z,14.50
2022-10-17T01:08:00.653Z,14.50
2022-10-17T01:10:30.339Z,14.50
2022-10-17T01:13:25.859Z,14.60
2022-10-17T01:16:15.064Z,14.50
2022-10-17T01:18:51.840Z,14.40
2022-10-17T01:21:37.193Z,14.40
2022-10-17T01:24:27.776Z,14.40
2022-10-17T01:27:19.034Z,14.40
2022-10-17T01:30:16.631Z,14.40
2022-10-17T01:32:51.083Z,14.40
2022-10-17T01:35:46.150Z,14.40
2022-10-17T01:38:21.519Z,14.40
2022-10-17T01:40:50.754Z,14.40
2022-10-17T01:43:24.663Z,14.40
2022-10-17T01:45:53.916Z,14.40
2022-10-17T01:48:32.042Z,14.40
2022-10-17T01:51:06.628Z,14.40
2022-10-17T01:53:37.727Z,14.40
2022-10-17T01:56:08.524Z,14.40
2022-10-17T01:58:52.169Z,14.40
2022-10-17T02:01:21.050Z,14.40
2022-10-17T02:03:50.760Z,14.30
2022-10-17T02:06:17.910Z,14.30
2022-10-17T02:08:50.188Z,14.30
2022-10-17T02:11:22.703Z,14.30
2022-10-17T02:14:21.333Z,14.30
2022-10-17T02:17:05.775Z,14.30
2022-10-17T02:19:32.590Z,14.30
2022-10-17T02:22:40.184Z,14.30
2022-10-17T02:25:23.619Z,14.30
2022-10-17T02:28:04.628Z,14.30
2022-10-17T02:30:55.159Z,14.30
2022-10-17T02:33:30.820Z,14.30
2022-10-17T02:36:01.915Z,14.30
2022-10-17T02:38:32.378Z,14.30
2022-10-17T02:41:00.441Z,14.30
2022-10-17T02:43:28.115Z,14.30
2022-10-17T02:45:56.655Z,14.30
2022-10-17T02:48:47.505Z,14.30
2022-10-17T02:51:43.356Z,14.30
2022-10-17T02:54:45.815Z,14.30
2022-10-17T02:57:21.026Z,14.20
2022-10-17T02:59:49.430Z,14.20
2022-10-17T03:02:16.871Z,14.20
2022-10-17T03:04:47.001Z,14.20
2022-10-17T03:07:14.092Z,14.20
2022-10-17T03:09:41.185Z,14.20
2022-10-17T03:12:08.295Z,14.20
2022-10-17T03:14:35.730Z,14.20
2022-10-17T03:17:03.723Z,14.20
2022-10-17T03:19:31.147Z,14.10
2022-10-17T03:21:58.242Z,14.10
2022-10-17T03:24:25.209Z,14.10
2022-10-17T03:26:52.142Z,14.10
2022-10-17T03:29:19.544Z,14.00
2022-10-17T03:31:47.956Z,14.00
2022-10-17T03:34:17.618Z,14.00
2022-10-17T03:36:45.714Z,14.00
2022-10-17T03:39:13.060Z,14.00
2022-10-17T03:41:40.070Z,14.00
2022-10-17T03:44:07.266Z,14.00
2022-10-17T03:46:34.154Z,14.00
2022-10-17T03:49:01.579Z,14.00
2022-10-17T03:51:28.925Z,14.00
2022-10-17T03:54:02.464Z,14.00
2022-10-17T03:56:29.633Z,13.90
2022-10-17T03:59:03.206Z,14.00
2022-10-17T04:01:33.363Z,13.90
2022-10-17T04:04:00.483Z,13.90
2022-10-17T04:06:31.047Z,13.90
2022-10-17T04:08:58.247Z,13.90
2022-10-17T04:11:31.750Z,13.80
2022-10-17T04:14:00.860Z,13.80
2022-10-17T04:16:29.725Z,13.80
2022-10-17T04:19:01.125Z,13.80
2022-10-17T04:21:32.551Z,13.80
2022-10-17T04:24:05.843Z,13.80
2022-10-17T04:26:44.933Z,13.80
2022-10-17T04:29:13.126Z,13.80
2022-10-17T04:31:41.702Z,13.80
2022-10-17T04:34:19.647Z,13.80
2022-10-17T04:36:47.238Z,13.80
2022-10-17T04:39:14.942Z,13.70
2022-10-17T04:41:42.367Z,13.70
2022-10-17T04:44:11.051Z,13.70
2022-10-17T04:46:41.919Z,13.70
2022-10-17T04:49:09.568Z,13.70
2022-10-17T04:51:38.795Z,13.70
2022-10-17T04:54:19.887Z,13.70
2022-10-17T04:56:53.735Z,13.70
2022-10-17T04:59:20.968Z,13.70
2022-10-17T05:01:54.449Z,13.70
2022-10-17T05:04:24.007Z,13.70
2022-10-17T05:06:53.061Z,13.70
2022-10-17T05:09:26.426Z,13.70
2022-10-17T05:11:54.925Z,13.70
2022-10-17T05:14:23.015Z,13.70
2022-10-17T05:16:50.118Z,13.70
2022-10-17T05:19:18.369Z,13.70
2022-10-17T05:21:47.858Z,13.70
2022-10-17T05:24:15.340Z,13.70
2022-10-17T05:26:42.308Z,13.70
2022-10-17T05:29:10.428Z,13.70
2022-10-17T05:31:42.520Z,13.70
2022-10-17T05:35:13.685Z,13.70
2022-10-17T05:38:06.199Z,13.80
2022-10-17T05:40:35.059Z,13.70
2022-10-17T05:43:02.890Z,13.80
2022-10-17T05:45:30.437Z,13.80
2022-10-17T05:47:57.826Z,13.80
2022-10-17T05:50:25.278Z,13.80
2022-10-17T05:53:05.560Z,13.80
2022-10-17T05:55:38.400Z,13.80
2022-10-17T05:58:05.324Z,13.80
2022-10-17T06:00:36.679Z,13.80
2022-10-17T06:03:04.184Z,13.80
2022-10-17T06:05:31.264Z,13.80
2022-10-17T06:08:01.121Z,13.80
2022-10-17T06:10:34.548Z,13.90
2022-10-17T06:13:02.409Z,13.90
2022-10-17T06:15:29.262Z,13.90
2022-10-17T06:18:02.078Z,13.90
2022-10-17T06:20:29.133Z,13.90
2022-10-17T06:22:56.585Z,14.00
2022-10-17T06:25:45.093Z,14.00
2022-10-17T06:28:12.871Z,14.00
2022-10-17T06:30:41.144Z,14.00
2022-10-17T06:33:08.454Z,14.10
2022-10-17T06:35:36.186Z,14.10
2022-10-17T06:38:04.091Z,14.10
2022-10-17T06:40:34.769Z,14.10
2022-10-17T06:43:02.017Z,14.20
2022-10-17T06:45:49.200Z,14.20
2022-10-17T06:48:31.083Z,14.20
2022-10-17T06:51:36.572Z,14.20
2022-10-17T06:54:06.935Z,14.20
2022-10-17T06:56:52.917Z,14.30
2022-10-17T06:59:49.018Z,14.30
2022-10-17T07:02:20.592Z,14.40
2022-10-17T07:04:47.956Z,14.40
2022-10-17T07:07:14.699Z,14.40
2022-10-17T07:09:41.604Z,14.50
2022-10-17T07:12:09.387Z,14.50
2022-10-17T07:14:42.187Z,14.60
2022-10-17T07:17:10.488Z,14.60
2022-10-17T07:19:38.302Z,14.60
2022-10-17T07:22:07.652Z,14.70
2022-10-17T07:24:37.229Z,14.70
2022-10-17T07:27:26.520Z,14.80
2022-10-17T07:29:53.686Z,14.90
2022-10-17T07:32:36.392Z,15.00
2022-10-17T07:35:04.969Z,15.10
2022-10-17T07:37:32.337Z,15.10
2022-10-17T07:40:02.677Z,15.20
2022-10-17T07:42:29.794Z,15.30
2022-10-17T07:44:59.110Z,15.40
2022-10-17T07:47:31.472Z,15.50
2022-10-17T07:50:00.142Z,15.60
2022-10-17T07:52:27.703Z,15.70
2022-10-17T07:54:55.317Z,15.70
2022-10-17T07:57:22.271Z,15.80
2022-10-17T07:59:50.829Z,15.80
2022-10-17T08:02:23.224Z,16.00
2022-10-17T08:04:51.281Z,16.10
2022-10-17T08:07:24.148Z,16.20
2022-10-17T08:09:54.060Z,16.30
2022-10-17T08:12:21.082Z,16.40
2022-10-17T08:14:48.187Z,16.40
2022-10-17T08:17:15.288Z,16.50
2022-10-17T08:19:42.319Z,16.70
2022-10-17T08:22:09.515Z,16.80
2022-10-17T08:24:36.733Z,16.90
2022-10-17T08:27:11.104Z,17.10
2022-10-17T08:29:39.013Z,17.20
2022-10-17T08:32:09.641Z,17.40
2022-10-17T08:34:36.966Z,17.50
2022-10-17T08:37:04.412Z,17.70
2022-10-17T08:39:31.339Z,17.70
2022-10-17T08:41:58.197Z,17.70
2022-10-17T08:44:31.449Z,17.70
2022-10-17T08:47:02.478Z,17.70
2022-10-17T08:49:42.726Z,17.70
2022-10-17T08:52:41.005Z,17.80
2022-10-17T08:57:49.086Z,18.00
2022-10-17T09:00:21.644Z,18.00
2022-10-17T09:03:04.579Z,18.20
2022-10-17T09:05:46.199Z,18.30
2022-10-17T09:08:18.834Z,18.40
2022-10-17T09:10:58.003Z,18.50
2022-10-17T09:13:59.808Z,18.50
2022-10-17T09:16:38.744Z,18.60
2022-10-17T09:19:15.739Z,18.70
2022-10-17T09:21:50.978Z,18.70
2022-10-17T09:24:25.814Z,18.80
2022-10-17T09:26:54.796Z,18.80
2022-10-17T09:29:32.399Z,18.90
2022-10-17T09:32:18.276Z,18.90
2022-10-17T09:34:45.498Z,18.90
2022-10-17T09:37:15.418Z,18.90
2022-10-17T09:39:44.502Z,18.90
2022-10-17T09:42:21.612Z,19.00
2022-10-17T09:44:48.612Z,19.10
2022-10-17T09:47:29.908Z,19.10
2022-10-17T09:49:57.905Z,19.10
2022-10-17T09:52:34.348Z,19.10
2022-10-17T09:55:26.851Z,19.10
2022-10-17T09:57:58.795Z,19.10
2022-10-17T10:00:34.989Z,19.30
2022-10-17T10:03:26.116Z,19.40
2022-10-17T10:06:25.810Z,19.60
2022-10-17T10:08:55.183Z,19.80
2022-10-17T10:11:44.023Z,20.00
2022-10-17T10:14:20.459Z,20.10
2022-10-17T10:16:48.774Z,20.30
2022-10-17T10:19:49.747Z,20.50
2022-10-17T10:22:18.756Z,20.60
2022-10-17T10:24:45.999Z,20.70
2022-10-17T10:27:14.983Z,20.70
2022-10-17T10:29:49.000Z,20.70
2022-10-17T10:32:36.786Z,20.70
2022-10-17T10:35:09.038Z,20.70
2022-10-17T10:37:43.705Z,20.70
2022-10-17T10:40:37.494Z,20.70
2022-10-17T10:43:06.537Z,20.70
2022-10-17T10:45:48.164Z,20.70
2022-10-17T10:48:22.587Z,20.70
2022-10-17T10:51:05.359Z,20.70
2022-10-17T10:53:43.830Z,20.70
2022-10-17T10:56:32.820Z,20.70
2022-10-17T10:59:09.499Z,20.70
2022-10-17T11:01:49.392Z,20.70
2022-10-17T11:04:41.924Z,20.70
2022-10-17T11:07:16.671Z,20.80
2022-10-17T11:09:51.527Z,20.80
2022-10-17T11:12:30.684Z,20.70
2022-10-17T11:15:10.178Z,20.70
2022-10-17T11:17:43.773Z,20.70
2022-10-17T11:20:22.154Z,20.80
2022-10-17T11:22:57.691Z,20.90
2022-10-17T11:25:39.491Z,20.90
2022-10-17T11:28:14.978Z,20.90
2022-10-17T11:31:03.355Z,20.90
2022-10-17T11:33:54.482Z,20.90
2022-10-17T11:36:26.157Z,20.80
2022-10-17T11:38:59.113Z,20.70
2022-10-17T11:41:44.026Z,20.70
2022-10-17T11:44:41.238Z,20.80
2022-10-17T11:47:32.952Z,20.70
2022-10-17T11:53:29.498Z,20.70
2022-10-17T11:55:59.289Z,20.60
2022-10-17T11:58:49.368Z,20.60
2022-10-17T12:01:47.555Z,20.60
2022-10-17T12:04:22.943Z,20.60
2022-10-17T12:07:15.127Z,20.60
2022-10-17T12:09:57.292Z,20.60
2022-10-17T12:12:30.457Z,20.50
2022-10-17T12:15:13.259Z,20.50
2022-10-17T12:18:02.552Z,20.60
2022-10-17T12:20:35.409Z,20.60
2022-10-17T12:23:11.643Z,20.60
2022-10-17T12:25:53.697Z,20.60
2022-10-17T12:28:31.940Z,20.60
2022-10-17T12:31:15.723Z,20.70
2022-10-17T12:33:50.594Z,20.70
2022-10-17T12:36:17.553Z,20.70
2022-10-17T12:38:50.313Z,20.70
2022-10-17T12:41:37.163Z,20.70
2022-10-17T12:44:13.859Z,20.70
2022-10-17T12:46:57.641Z,20.70
2022-10-17T12:49:43.741Z,20.70
2022-10-17T12:52:24.895Z,20.70
2022-10-17T12:55:10.915Z,20.70
2022-10-17T12:58:05.119Z,20.70
2022-10-17T13:00:49.826Z,20.80
2022-10-17T13:03:26.477Z,20.80
2022-10-17T13:05:56.919Z,20.90
2022-10-17T13:08:34.071Z,20.90
2022-10-17T13:11:01.625Z,21.00
2022-10-17T13:13:42.322Z,21.10
2022-10-17T13:16:11.384Z,21.10
2022-10-17T13:18:38.265Z,21.00
2022-10-17T13:21:16.124Z,21.10
2022-10-17T13:23:43.459Z,21.00
2022-10-17T13:26:15.523Z,21.10
2022-10-17T13:28:44.398Z,21.10
2022-10-17T13:31:35.691Z,21.00
2022-10-17T13:34:05.760Z,21.00
2022-10-17T13:36:35.363Z,21.00
2022-10-17T13:39:12.260Z,21.00
2022-10-17T13:41:45.226Z,21.10
2022-10-17T13:44:17.030Z,21.00
2022-10-17T13:46:45.074Z,21.00
2022-10-17T13:49:38.008Z,21.00
2022-10-17T13:52:07.656Z,21.00
2022-10-17T13:54:41.195Z,20.90
2022-10-17T13:57:34.955Z,20.80
2022-10-17T14:00:11.399Z,20.80
2022-10-17T14:02:42.021Z,20.80
2022-10-17T14:05:18.704Z,20.80
2022-10-17T14:08:10.524Z,20.80
2022-10-17T14:10:40.017Z,20.80
2022-10-17T14:13:15.132Z,20.80
2022-10-17T14:15:46.213Z,20.80
2022-10-17T14:18:24.115Z,20.80
2022-10-17T14:23:42.576Z,20.80
2022-10-17T14:26:17.146Z,20.80
2022-10-17T14:28:47.745Z,20.80
2022-10-17T14:31:22.560Z,20.90
2022-10-17T14:33:51.447Z,20.90
2022-10-17T14:36:20.433Z,20.90
2022-10-17T14:38:52.605Z,20.90
2022-10-17T14:44:31.702Z,21.00
2022-10-17T14:47:30.891Z,21.00
2022-10-17T14:50:07.588Z,21.00
2022-10-17T14:52:35.640Z,20.90
2022-10-17T14:55:24.824Z,20.90
2022-10-17T14:57:51.847Z,20.90
2022-10-17T15:00:21.165Z,20.90
2022-10-17T15:02:49.668Z,20.80
2022-10-17T15:05:17.208Z,20.80
2022-10-17T15:07:44.594Z,20.70
2022-10-17T15:10:34.030Z,20.70
2022-10-17T15:13:26.520Z,20.70
2022-10-17T15:15:51.839Z,20.70
2022-10-17T15:18:19.333Z,20.60
2022-10-17T15:20:46.748Z,20.60
2022-10-17T15:23:16.499Z,20.60
2022-10-17T15:25:43.851Z,20.60
2022-10-17T15:28:13.479Z,20.60
2022-10-17T15:30:41.998Z,20.50
2022-10-17T15:33:09.152Z,20.50
2022-10-17T15:35:36.942Z,20.50
2022-10-17T15:38:07.591Z,20.40
2022-10-17T15:40:34.371Z,20.40
2022-10-17T15:43:01.317Z,20.40
2022-10-17T15:45:28.401Z,20.30
2022-10-17T15:48:00.425Z,20.30
2022-10-17T15:50:30.509Z,20.30
2022-10-17T15:52:57.445Z,20.20
2022-10-17T15:55:25.366Z,20.20
2022-10-17T15:57:52.587Z,20.20
2022-10-17T16:00:24.374Z,20.10
2022-10-17T16:02:51.552Z,20.10
2022-10-17T16:05:25.810Z,20.00
2022-10-17T16:07:54.351Z,20.00
2022-10-17T16:10:22.552Z,19.90
2022-10-17T16:12:50.428Z,19.90
2022-10-17T16:15:27.883Z,19.80
2022-10-17T16:18:01.720Z,19.80
2022-10-17T16:20:32.194Z,19.70
2022-10-17T16:23:02.375Z,19.70
2022-10-17T16:25:31.415Z,19.60
2022-10-17T16:28:00.383Z,19.60
2022-10-17T16:30:30.055Z,19.50
2022-10-17T16:32:57.356Z,19.50
2022-10-17T16:35:33.245Z,19.50
2022-10-17T16:38:07.524Z,19.50
2022-10-17T16:40:37.731Z,19.40
2022-10-17T16:43:04.676Z,19.40
2022-10-17T16:45:31.782Z,19.40
2022-10-17T16:47:58.976Z,19.40
2022-10-17T16:50:26.052Z,19.30
2022-10-17T16:52:52.971Z,19.30
2022-10-17T16:55:20.483Z,19.30
2022-10-17T16:57:49.178Z,19.30
2022-10-17T17:00:17.634Z,19.30
2022-10-17T17:02:47.148Z,19.20
2022-10-17T17:05:14.631Z,19.20
2022-10-17T17:07:41.860Z,19.10
2022-10-17T17:10:10.600Z,19.10
2022-10-17T17:12:37.844Z,19.10
2022-10-17T17:15:05.968Z,19.00
2022-10-17T17:17:48.684Z,19.00
2022-10-17T17:20:18.650Z,19.00
2022-10-17T17:22:45.800Z,19.00
2022-10-17T17:25:12.845Z,19.00
2022-10-17T17:27:39.895Z,19.00
2022-10-17T17:30:07.809Z,19.00
2022-10-17T17:32:34.898Z,19.00
2022-10-17T17:35:02.095Z,19.00
2022-10-17T17:37:29.637Z,18.90
2022-10-17T17:39:56.853Z,18.90
2022-10-17T17:42:23.959Z,18.90
2022-10-17T17:44:50.999Z,18.90
2022-10-17T17:47:18.500Z,18.90
2022-10-17T17:49:45.746Z,18.90
2022-10-17T17:52:12.657Z,18.80
2022-10-17T17:54:40.959Z,18.80
2022-10-17T17:57:08.460Z,18.80
2022-10-17T17:59:38.281Z,18.80
2022-10-17T18:02:06.717Z,18.80
2022-10-17T18:04:33.886Z,18.70
2022-10-17T18:07:00.790Z,18.70
2022-10-17T18:09:27.650Z,18.70
2022-10-17T18:11:55.101Z,18.70
2022-10-17T18:14:23.834Z,18.70
2022-10-17T18:16:50.901Z,18.70
2022-10-17T18:19:17.964Z,18.60
2022-10-17T18:21:45.078Z,18.60
2022-10-17T18:24:12.108Z,18.60
2022-10-17T18:26:38.984Z,18.60
2022-10-17T18:29:05.974Z,18.60
2022-10-17T18:31:35.789Z,18.60
2022-10-17T18:34:04.478Z,18.60
2022-10-17T18:36:33.041Z,18.60
2022-10-17T18:39:01.439Z,18.60
2022-10-17T18:41:28.773Z,18.60
2022-10-17T18:43:56.277Z,18.60
2022-10-17T18:46:32.619Z,18.60
2022-10-17T18:49:00.071Z,18.60
2022-10-17T18:51:27.577Z,18.50
2022-10-17T18:53:56.554Z,18.50
2022-10-17T18:56:25.597Z,18.60
2022-10-17T18:58:53.086Z,18.60
2022-10-17T19:01:21.088Z,18.50
2022-10-17T19:03:49.845Z,18.50
2022-10-17T19:06:22.870Z,18.50
2022-10-17T19:08:52.613Z,18.50
2022-10-17T19:11:21.150Z,18.50
2022-10-17T19:13:49.276Z,18.50
2022-10-17T19:16:22.362Z,18.40
2022-10-17T19:18:51.767Z,18.40
2022-10-17T19:21:22.267Z,18.40
2022-10-17T19:23:55.061Z,18.40
2022-10-17T19:26:23.121Z,18.40
2022-10-17T19:28:53.836Z,18.30
2022-10-17T19:31:27.315Z,18.30
2022-10-17T19:33:56.191Z,18.30
2022-10-17T19:36:30.454Z,18.30
2022-10-17T19:39:08.236Z,18.30
2022-10-17T19:41:36.548Z,18.30
2022-10-17T19:44:04.247Z,18.30
2022-10-17T19:46:34.200Z,18.30
2022-10-17T19:49:02.299Z,18.30
2022-10-17T19:51:30.280Z,18.30
2022-10-17T19:54:00.263Z,18.20
2022-10-17T19:56:30.010Z,18.20
2022-10-17T19:58:58.486Z,18.20
2022-10-17T20:01:28.119Z,18.20
2022-10-17T20:03:55.890Z,18.20
2022-10-17T20:06:25.939Z,18.20
2022-10-17T20:08:53.890Z,18.10
2022-10-17T20:11:23.810Z,18.20
2022-10-17T20:13:54.359Z,18.10
2022-10-17T20:16:27.595Z,18.10
2022-10-17T20:19:01.707Z,18.10
2022-10-17T20:21:34.842Z,18.10
2022-10-17T20:24:05.931Z,18.10
2022-10-17T20:26:39.435Z,18.00
2022-10-17T20:29:18.219Z,18.00
2022-10-17T20:31:46.611Z,18.00
2022-10-17T20:34:15.693Z,18.00
2022-10-17T20:36:43.655Z,18.00
2022-10-17T20:39:12.530Z,17.90
2022-10-17T20:41:40.618Z,17.90
2022-10-17T20:44:08.664Z,18.00
2022-10-17T20:46:38.521Z,17.90
2022-10-17T20:49:16.964Z,17.90
2022-10-17T20:51:45.177Z,17.90
2022-10-17T20:54:13.558Z,17.90
2022-10-17T20:56:40.961Z,17.90
2022-10-17T20:59:16.580Z,17.90
2022-10-17T21:01:45.239Z,17.90
2022-10-17T21:04:45.527Z,17.80
2022-10-17T21:07:00.452Z,17.80
2022-10-17T21:09:27.882Z,17.80
2022-10-17T21:11:56.067Z,17.80
2022-10-17T21:14:25.034Z,17.80
2022-10-17T21:16:52.560Z,17.80
2022-10-17T21:19:21.948Z,17.90
2022-10-17T21:21:49.590Z,17.80
2022-10-17T21:24:18.109Z,17.90
2022-10-17T21:26:47.201Z,17.80
2022-10-17T21:29:14.809Z,17.80
2022-10-17T21:31:44.393Z,17.80
2022-10-17T21:34:18.521Z,17.80
2022-10-17T21:36:46.108Z,17.80
2022-10-17T21:39:14.633Z,17.70
2022-10-17T21:41:42.826Z,17.80
2022-10-17T21:44:16.764Z,17.70
2022-10-17T21:46:44.577Z,17.70
2022-10-17T21:49:15.253Z,17.70
2022-10-17T21:51:44.188Z,17.70
2022-10-17T21:54:11.806Z,17.70
2022-10-17T21:56:41.681Z,17.70
2022-10-17T21:59:09.339Z,17.70
2022-10-17T22:01:37.840Z,17.70
2022-10-17T22:04:07.794Z,17.60
2022-10-17T22:06:40.278Z,17.60
2022-10-17T22:09:23.190Z,17.60
2022-10-17T22:11:53.351Z,17.60
2022-10-17T22:14:23.075Z,17.60
2022-10-17T22:16:50.724Z,17.60
2022-10-17T22:19:22.176Z,17.60
2022-10-17T22:21:50.420Z,17.60
2022-10-17T22:26:52.130Z,17.50
2022-10-17T22:29:19.158Z,17.50
2022-10-17T22:31:46.645Z,17.50
2022-10-17T22:34:14.280Z,17.50
2022-10-17T22:36:42.340Z,17.50
2022-10-17T22:39:09.991Z,17.40
2022-10-17T22:41:37.450Z,17.40
2022-10-17T22:44:04.879Z,17.40
2022-10-17T22:46:32.331Z,17.40
2022-10-17T22:48:59.837Z,17.40
2022-10-17T22:51:27.741Z,17.40
2022-10-17T22:53:54.973Z,17.50
2022-10-17T22:56:23.816Z,17.40
2022-10-17T22:58:51.491Z,17.40
2022-10-17T23:01:24.381Z,17.40
2022-10-17T23:03:54.264Z,17.40
2022-10-17T23:06:22.229Z,17.40
2022-10-17T23:08:49.724Z,17.30
2022-10-17T23:11:17.136Z,17.40
2022-10-17T23:13:44.174Z,17.30
2022-10-17T23:16:11.749Z,17.30
2022-10-17T23:18:39.154Z,17.20
2022-10-17T23:21:06.934Z,17.20
2022-10-17T23:23:34.488Z,17.20
2022-10-17T23:26:13.392Z,17.20
2022-10-17T23:28:42.757Z,17.20
2022-10-17T23:31:18.704Z,17.20
2022-10-17T23:33:48.159Z,17.20
2022-10-17T23:36:19.389Z,17.20
2022-10-17T23:38:47.862Z,17.20
2022-10-17T23:41:17.467Z,17.20
2022-10-17T23:43:45.112Z,17.20
2022-10-17T23:46:12.942Z,17.20
2022-10-17T23:48:40.856Z,17.20
2022-10-17T23:51:09.321Z,17.20
2022-10-17T23:53:38.435Z,17.20
2022-10-17T23:56:10.758Z,17.20
2022-10-17T23:58:41.635Z,17.20
